createdAt,value
2023-04-11T00:02:45.033Z,3.01
2023-04-11T00:05:46.679Z,3.03
2023-04-11T00:08:48.231Z,2.98
2023-04-11T00:11:49.786Z,2.92
2023-04-11T00:14:51.818Z,2.94
2023-04-11T00:17:53.928Z,2.95
2023-04-11T00:20:55.838Z,2.99
2023-04-11T00:23:57.570Z,3.03
2023-04-11T00:26:59.351Z,3.07
2023-04-11T00:30:01.312Z,3.09
2023-04-11T00:33:02.909Z,3.06
2023-04-11T00:36:04.810Z,3.04
2023-04-11T00:39:06.965Z,3.04
2023-04-11T00:42:08.949Z,3.01
2023-04-11T00:45:11.147Z,2.98
2023-04-11T00:48:12.787Z,2.94
2023-04-11T00:51:19.011Z,2.90
2023-04-11T00:54:20.571Z,2.89
2023-04-11T00:57:22.292Z,2.87
2023-04-11T01:00:24.450Z,2.80
2023-04-11T01:03:26.523Z,2.71
2023-04-11T01:06:30.080Z,2.64
2023-04-11T01:09:33.278Z,2.58
2023-04-11T01:12:36.014Z,2.57
2023-04-11T01:15:37.539Z,2.53
2023-04-11T01:18:39.353Z,2.44
2023-04-11T01:21:41.328Z,2.38
2023-04-11T01:24:42.922Z,2.35
2023-04-11T01:27:44.810Z,2.32
2023-04-11T01:30:46.671Z,2.30
2023-04-11T01:33:48.501Z,2.30
2023-04-11T01:36:50.086Z,2.29
2023-04-11T01:39:52.133Z,2.26
2023-04-11T01:42:56.897Z,2.24
2023-04-11T01:45:58.360Z,2.20
2023-04-11T01:49:00.494Z,2.15
2023-04-11T01:52:02.857Z,2.13
2023-04-11T01:55:04.819Z,2.13
2023-04-11T01:58:06.439Z,2.09
2023-04-11T02:01:08.594Z,2.03
2023-04-11T02:04:10.649Z,1.97
2023-04-11T02:07:12.779Z,1.92
2023-04-11T02:10:14.335Z,1.89
2023-04-11T02:13:16.183Z,1.83
2023-04-11T02:16:18.152Z,1.75
2023-04-11T02:19:20.073Z,1.66
2023-04-11T02:22:21.692Z,1.61
2023-04-11T02:25:23.458Z,1.56
2023-04-11T02:28:25.001Z,1.50
2023-04-11T02:31:26.596Z,1.41
2023-04-11T02:34:28.349Z,1.33
2023-04-11T02:37:29.834Z,1.21
2023-04-11T02:40:31.550Z,1.12
2023-04-11T02:43:33.324Z,1.05
2023-04-11T02:46:35.098Z,1.01
2023-04-11T02:49:36.812Z,0.93
2023-04-11T02:52:38.855Z,0.83
2023-04-11T02:55:40.369Z,0.74
2023-04-11T02:58:42.231Z,0.66
2023-04-11T03:01:45.058Z,0.59
2023-04-11T03:04:46.627Z,0.52
2023-04-11T03:07:48.171Z,0.49
2023-04-11T03:10:49.697Z,0.49
2023-04-11T03:13:51.226Z,0.49
2023-04-11T03:16:52.982Z,0.48
2023-04-11T03:19:54.538Z,0.46
2023-04-11T03:22:56.117Z,0.41
2023-04-11T03:25:57.672Z,0.31
2023-04-11T03:28:59.272Z,0.18
2023-04-11T03:32:00.886Z,0.05
2023-04-11T03:35:02.509Z,-0.05
2023-04-11T03:38:04.126Z,-0.13
2023-04-11T03:41:05.987Z,-0.23
2023-04-11T03:44:07.607Z,-0.27
2023-04-11T03:47:09.232Z,-0.30
2023-04-11T03:50:11.027Z,-0.31
2023-04-11T03:53:12.595Z,-0.32
2023-04-11T03:56:14.157Z,-0.31
2023-04-11T03:59:15.764Z,-0.33
2023-04-11T04:02:17.398Z,-0.36
2023-04-11T04:05:19.143Z,-0.42
2023-04-11T04:08:20.772Z,-0.58
2023-04-11T04:11:22.297Z,-0.76
2023-04-11T04:14:24.007Z,-0.87
2023-04-11T04:17:25.625Z,-0.82
2023-04-11T04:20:27.294Z,-0.78
2023-04-11T04:23:29.085Z,-0.78
2023-04-11T04:26:31.195Z,-0.73
2023-04-11T04:29:32.829Z,-0.59
2023-04-11T04:32:35.136Z,-0.52
2023-04-11T04:35:36.829Z,-0.43
2023-04-11T04:38:38.512Z,-0.34
2023-04-11T04:41:40.114Z,-0.32
2023-04-11T04:44:41.841Z,-0.30
2023-04-11T04:47:43.328Z,-0.32
2023-04-11T04:50:44.912Z,-0.26
2023-04-11T04:53:46.523Z,-0.18
2023-04-11T04:56:48.044Z,-0.07
2023-04-11T04:59:49.626Z,0.09
2023-04-11T05:02:51.251Z,0.28
2023-04-11T05:05:52.765Z,0.45
2023-04-11T05:08:54.632Z,0.63
2023-04-11T05:11:56.366Z,0.80
2023-04-11T05:14:57.891Z,0.94
2023-04-11T05:17:59.617Z,0.95
2023-04-11T05:21:01.525Z,1.01
2023-04-11T05:24:03.465Z,1.14
2023-04-11T05:27:05.175Z,1.30
2023-04-11T05:30:06.980Z,1.40
2023-04-11T05:33:08.621Z,1.55
2023-04-11T05:36:10.202Z,1.76
2023-04-11T05:39:11.869Z,1.92
2023-04-11T05:42:14.923Z,2.28
2023-04-11T05:45:16.721Z,2.73
2023-04-11T05:48:18.361Z,3.06
2023-04-11T05:51:19.982Z,3.52
2023-04-11T05:54:31.682Z,4.01
2023-04-11T05:57:33.373Z,4.44
2023-04-11T06:00:35.247Z,4.74
2023-04-11T06:03:36.975Z,5.14
2023-04-11T06:06:38.561Z,5.50
2023-04-11T06:09:39.977Z,5.79
2023-04-11T06:12:41.748Z,6.15
2023-04-11T06:15:43.346Z,6.47
2023-04-11T06:18:45.111Z,7.11
2023-04-11T06:21:46.708Z,7.81
2023-04-11T06:24:48.232Z,8.30
2023-04-11T06:27:50.280Z,8.83
2023-04-11T06:30:51.946Z,9.33
2023-04-11T06:33:53.600Z,9.72
2023-04-11T06:36:55.251Z,10.13
2023-04-11T06:39:56.837Z,10.55
2023-04-11T06:42:58.588Z,11.07
2023-04-11T06:46:00.380Z,11.60
2023-04-11T06:49:01.901Z,12.11
2023-04-11T06:52:03.614Z,12.54
2023-04-11T06:55:06.098Z,12.86
2023-04-11T06:58:07.680Z,13.07
2023-04-11T07:01:09.317Z,13.35
2023-04-11T07:04:11.289Z,13.75
2023-04-11T07:07:12.970Z,14.21
2023-04-11T07:10:14.703Z,14.52
2023-04-11T07:13:16.351Z,14.85
2023-04-11T07:16:17.961Z,14.91
2023-04-11T07:19:19.524Z,14.87
2023-04-11T07:22:21.243Z,15.03
2023-04-11T07:25:26.443Z,14.88
2023-04-11T07:28:28.205Z,15.00
2023-04-11T07:31:29.754Z,15.19
2023-04-11T07:34:31.356Z,15.23
2023-04-11T07:37:32.958Z,15.55
2023-04-11T07:40:34.483Z,15.85
2023-04-11T07:43:36.284Z,15.91
2023-04-11T07:46:38.043Z,16.33
2023-04-11T07:49:39.768Z,16.54
2023-04-11T07:52:41.299Z,16.54
2023-04-11T07:55:42.883Z,16.53
2023-04-11T07:58:44.411Z,16.22
2023-04-11T08:01:46.212Z,16.71
2023-04-11T08:04:47.942Z,17.11
2023-04-11T08:07:49.545Z,17.79
2023-04-11T08:10:52.267Z,18.35
2023-04-11T08:13:54.215Z,18.99
2023-04-11T08:16:55.921Z,19.42
2023-04-11T08:19:57.801Z,19.76
2023-04-11T08:22:59.428Z,19.77
2023-04-11T08:26:00.999Z,19.48
2023-04-11T08:29:02.966Z,18.29
2023-04-11T08:32:04.984Z,17.45
2023-04-11T08:35:07.164Z,17.48
2023-04-11T08:38:09.432Z,17.29
2023-04-11T08:41:12.387Z,17.27
2023-04-11T08:44:13.993Z,16.83
2023-04-11T08:47:15.917Z,16.30
2023-04-11T08:50:17.524Z,16.18
2023-04-11T08:53:21.004Z,16.46
2023-04-11T08:56:22.592Z,16.02
2023-04-11T08:59:24.078Z,15.63
2023-04-11T09:02:26.371Z,15.42
2023-04-11T09:05:33.092Z,15.48
2023-04-11T09:08:38.356Z,15.63
2023-04-11T09:11:53.738Z,15.85
2023-04-11T09:14:55.325Z,16.18
2023-04-11T09:18:00.376Z,16.10
2023-04-11T09:21:07.412Z,16.21
2023-04-11T09:24:15.437Z,16.02
2023-04-11T09:27:17.534Z,15.84
2023-04-11T09:30:26.115Z,15.84
2023-04-11T09:33:27.792Z,15.72
2023-04-11T09:36:29.322Z,15.64
2023-04-11T09:39:31.164Z,15.78
2023-04-11T09:42:32.780Z,15.94
2023-04-11T09:45:44.204Z,16.42
2023-04-11T09:48:54.575Z,16.37
2023-04-11T09:51:57.785Z,16.36
2023-04-11T09:55:00.003Z,16.77
2023-04-11T09:58:02.275Z,16.80
2023-04-11T10:01:05.932Z,16.31
2023-04-11T10:04:07.519Z,15.94
2023-04-11T10:07:13.167Z,15.72
2023-04-11T10:10:22.133Z,15.54
2023-04-11T10:13:43.233Z,15.74
2023-04-11T10:17:17.891Z,16.11
2023-04-11T10:20:43.015Z,16.73
2023-04-11T10:24:18.153Z,17.68
2023-04-11T10:27:49.036Z,17.86
2023-04-11T10:31:10.797Z,17.64
2023-04-11T10:34:13.788Z,17.11
2023-04-11T10:37:15.644Z,17.15
2023-04-11T10:40:17.330Z,17.15
2023-04-11T10:43:19.707Z,17.03
2023-04-11T10:46:23.254Z,17.05
2023-04-11T10:49:33.336Z,17.17
2023-04-11T10:52:37.961Z,17.55
2023-04-11T10:55:50.262Z,18.00
2023-04-11T10:58:51.828Z,18.18
2023-04-11T11:01:57.038Z,18.46
2023-04-11T11:04:59.982Z,18.84
2023-04-11T11:08:01.565Z,18.80
2023-04-11T11:11:05.136Z,18.87
2023-04-11T11:14:06.654Z,18.92
2023-04-11T11:17:08.521Z,18.97
2023-04-11T11:20:17.823Z,19.68
2023-04-11T11:23:19.324Z,19.71
2023-04-11T11:26:20.931Z,19.90
2023-04-11T11:29:34.209Z,19.17
2023-04-11T11:32:35.849Z,18.83
2023-04-11T11:35:37.682Z,19.09
2023-04-11T11:38:39.739Z,18.97
2023-04-11T11:41:41.428Z,18.95
2023-04-11T11:44:42.979Z,18.14
2023-04-11T11:47:45.978Z,17.78
2023-04-11T11:50:47.581Z,17.50
2023-04-11T11:54:05.803Z,17.26
2023-04-11T11:57:07.523Z,16.63
2023-04-11T12:00:09.806Z,16.58
2023-04-11T12:03:11.609Z,16.82
2023-04-11T12:06:13.387Z,16.67
2023-04-11T12:09:14.970Z,16.78
2023-04-11T12:12:16.502Z,17.31
2023-04-11T12:15:19.926Z,17.80
2023-04-11T12:18:26.725Z,17.85
2023-04-11T12:21:28.637Z,17.72
2023-04-11T12:24:30.227Z,17.64
2023-04-11T12:27:31.795Z,17.67
2023-04-11T12:30:33.430Z,17.81
2023-04-11T12:33:35.605Z,18.55
2023-04-11T12:36:37.163Z,18.34
2023-04-11T12:39:38.681Z,17.95
2023-04-11T12:42:49.423Z,18.04
2023-04-11T12:45:57.610Z,18.62
2023-04-11T12:48:59.199Z,18.53
2023-04-11T12:52:00.722Z,17.82
2023-04-11T12:55:03.349Z,17.82
2023-04-11T12:58:05.040Z,18.42
2023-04-11T13:01:07.061Z,19.01
2023-04-11T13:04:09.237Z,19.27
2023-04-11T13:07:10.844Z,19.47
2023-04-11T13:10:13.158Z,19.48
2023-04-11T13:13:18.345Z,19.63
2023-04-11T13:16:20.450Z,19.84
2023-04-11T13:19:23.024Z,20.13
2023-04-11T13:22:24.871Z,19.66
2023-04-11T13:25:26.580Z,19.89
2023-04-11T13:28:28.097Z,20.18
2023-04-11T13:31:29.722Z,20.30
2023-04-11T13:34:31.457Z,20.97
2023-04-11T13:37:33.056Z,21.84
2023-04-11T13:40:34.591Z,22.14
2023-04-11T13:43:36.102Z,21.54
2023-04-11T13:46:37.609Z,20.59
2023-04-11T13:49:39.243Z,20.45
2023-04-11T13:52:41.222Z,21.04
2023-04-11T13:55:42.706Z,21.90
2023-04-11T13:58:44.359Z,22.56
2023-04-11T14:01:45.995Z,22.70
2023-04-11T14:04:47.779Z,22.44
2023-04-11T14:07:49.242Z,21.31
2023-04-11T14:10:50.916Z,21.22
2023-04-11T14:13:52.436Z,21.94
2023-04-11T14:16:54.288Z,22.29
2023-04-11T14:19:55.892Z,22.62
2023-04-11T14:22:57.481Z,22.88
2023-04-11T14:25:59.445Z,22.40
2023-04-11T14:29:01.002Z,22.07
2023-04-11T14:32:02.728Z,22.17
2023-04-11T14:35:04.940Z,22.20
2023-04-11T14:38:06.502Z,21.89
2023-04-11T14:41:09.701Z,22.19
2023-04-11T14:44:12.736Z,22.67
2023-04-11T14:47:22.475Z,23.07
2023-04-11T14:50:24.761Z,23.46
2023-04-11T14:53:27.203Z,23.96
2023-04-11T14:56:28.887Z,24.07
2023-04-11T14:59:30.476Z,23.19
2023-04-11T15:02:32.333Z,22.16
2023-04-11T15:05:34.121Z,20.90
2023-04-11T15:08:35.661Z,20.14
2023-04-11T15:11:37.602Z,20.54
2023-04-11T15:14:39.132Z,21.21
2023-04-11T15:17:42.564Z,21.20
2023-04-11T15:20:44.168Z,21.75
2023-04-11T15:23:45.790Z,22.14
2023-04-11T15:26:47.318Z,21.36
2023-04-11T15:29:48.946Z,20.52
2023-04-11T15:32:50.608Z,19.81
2023-04-11T15:35:52.906Z,18.64
2023-04-11T15:38:54.572Z,17.27
2023-04-11T15:41:56.077Z,16.24
2023-04-11T15:44:57.724Z,15.68
2023-04-11T15:47:59.324Z,15.41
2023-04-11T15:51:08.330Z,15.20
2023-04-11T15:54:09.835Z,15.08
2023-04-11T15:57:11.363Z,15.05
2023-04-11T16:00:13.539Z,14.85
2023-04-11T16:03:15.305Z,14.59
2023-04-11T16:06:17.244Z,14.32
2023-04-11T16:09:18.967Z,14.08
2023-04-11T16:12:20.518Z,13.93
2023-04-11T16:15:22.232Z,13.78
2023-04-11T16:18:23.723Z,13.66
2023-04-11T16:21:25.294Z,13.65
2023-04-11T16:24:28.855Z,13.60
2023-04-11T16:27:30.505Z,13.51
2023-04-11T16:30:32.201Z,13.44
2023-04-11T16:33:33.880Z,13.15
2023-04-11T16:36:35.770Z,12.80
2023-04-11T16:39:37.877Z,12.43
2023-04-11T16:42:39.472Z,12.04
2023-04-11T16:45:41.255Z,11.82
2023-04-11T16:48:43.212Z,11.44
2023-04-11T16:51:44.712Z,11.16
2023-04-11T16:54:46.399Z,10.93
2023-04-11T16:57:47.937Z,10.65
2023-04-11T17:00:50.319Z,10.34
2023-04-11T17:03:52.528Z,9.88
2023-04-11T17:06:54.373Z,9.30
2023-04-11T17:09:56.227Z,8.88
2023-04-11T17:12:58.382Z,8.55
2023-04-11T17:16:00.129Z,8.33
2023-04-11T17:19:01.856Z,8.20
2023-04-11T17:22:03.551Z,8.11
2023-04-11T17:25:05.779Z,8.05
2023-04-11T17:28:07.550Z,8.03
2023-04-11T17:31:13.508Z,7.99
2023-04-11T17:34:15.315Z,8.00
2023-04-11T17:37:16.818Z,8.02
2023-04-11T17:40:18.572Z,8.02
2023-04-11T17:43:20.302Z,8.00
2023-04-11T17:46:22.081Z,7.89
2023-04-11T17:49:23.681Z,7.83
2023-04-11T17:52:25.304Z,7.80
2023-04-11T17:55:27.177Z,7.79
2023-04-11T17:58:29.197Z,7.87
2023-04-11T18:01:31.024Z,7.91
2023-04-11T18:04:32.841Z,7.94
2023-04-11T18:07:34.490Z,7.96
2023-04-11T18:10:36.189Z,7.98
2023-04-11T18:13:38.077Z,7.98
2023-04-11T18:16:39.826Z,7.98
2023-04-11T18:19:41.458Z,7.94
2023-04-11T18:22:48.091Z,7.92
2023-04-11T18:25:49.806Z,7.91
2023-04-11T18:28:51.239Z,7.89
2023-04-11T18:32:19.619Z,7.90
2023-04-11T18:35:14.815Z,7.88
2023-04-11T18:38:16.643Z,7.84
2023-04-11T18:41:18.815Z,7.86
2023-04-11T18:44:20.833Z,7.84
2023-04-11T18:47:22.669Z,7.83
2023-04-11T18:50:24.622Z,7.83
2023-04-11T18:53:26.761Z,7.82
2023-04-11T18:56:28.424Z,7.84
2023-04-11T18:59:31.309Z,7.86
2023-04-11T19:02:36.224Z,7.89
2023-04-11T19:05:37.997Z,7.87
2023-04-11T19:08:40.415Z,7.89
2023-04-11T19:11:41.843Z,7.91
2023-04-11T19:14:43.566Z,7.86
2023-04-11T19:17:45.322Z,7.80
2023-04-11T19:20:46.998Z,7.74
2023-04-11T19:23:48.986Z,7.67
2023-04-11T19:26:51.515Z,7.59
2023-04-11T19:29:59.284Z,7.58
2023-04-11T19:33:04.547Z,7.51
2023-04-11T19:36:06.613Z,7.48
2023-04-11T19:39:08.307Z,7.44
2023-04-11T19:42:09.845Z,7.37
2023-04-11T19:45:12.017Z,7.34
2023-04-11T19:48:14.318Z,7.30
2023-04-11T19:51:15.911Z,7.27
2023-04-11T19:54:17.618Z,7.16
2023-04-11T19:57:19.420Z,6.99
2023-04-11T20:00:25.083Z,6.87
2023-04-11T20:03:28.378Z,6.75
2023-04-11T20:06:30.016Z,6.63
2023-04-11T20:09:31.865Z,6.51
2023-04-11T20:12:34.270Z,6.40
2023-04-11T20:15:35.913Z,6.33
2023-04-11T20:18:37.525Z,6.26
2023-04-11T20:21:39.112Z,6.22
2023-04-11T20:24:40.853Z,6.17
2023-04-11T20:27:42.443Z,6.14
2023-04-11T20:30:44.085Z,6.11
2023-04-11T20:33:45.603Z,6.11
2023-04-11T20:36:47.326Z,6.14
2023-04-11T20:39:49.782Z,6.16
2023-04-11T20:42:51.289Z,6.17
2023-04-11T20:45:52.815Z,6.18
2023-04-11T20:48:54.343Z,6.17
2023-04-11T20:51:55.839Z,6.17
2023-04-11T20:54:57.291Z,6.16
2023-04-11T20:57:58.988Z,6.15
2023-04-11T21:01:00.664Z,6.13
2023-04-11T21:06:03.881Z,6.13
2023-04-11T21:09:05.900Z,6.09
2023-04-11T21:12:07.417Z,6.06
2023-04-11T21:15:09.553Z,6.01
2023-04-11T21:18:11.314Z,5.97
2023-04-11T21:21:13.443Z,5.92
2023-04-11T21:24:15.059Z,5.87
2023-04-11T21:27:16.606Z,5.81
2023-04-11T21:30:18.226Z,5.76
2023-04-11T21:33:20.135Z,5.71
2023-04-11T21:36:21.750Z,5.68
2023-04-11T21:39:23.341Z,5.65
2023-04-11T21:42:24.877Z,5.62
2023-04-11T21:45:26.446Z,5.59
2023-04-11T21:48:28.060Z,5.56
2023-04-11T21:51:29.548Z,5.55
2023-04-11T21:54:33.617Z,5.53
2023-04-11T21:57:35.519Z,5.51
2023-04-11T22:00:37.060Z,5.50
2023-04-11T22:03:38.942Z,5.49
2023-04-11T22:06:40.442Z,5.47
2023-04-11T22:09:42.172Z,5.46
2023-04-11T22:12:43.714Z,5.43
2023-04-11T22:15:46.404Z,5.41
2023-04-11T22:18:47.906Z,5.41
2023-04-11T22:21:49.503Z,5.39
2023-04-11T22:24:51.089Z,5.39
2023-04-11T22:27:52.620Z,5.38
2023-04-11T22:30:54.201Z,5.38
2023-04-11T22:33:56.349Z,5.37
2023-04-11T22:36:58.400Z,5.37
2023-04-11T22:40:00.122Z,5.37
2023-04-11T22:43:02.002Z,5.37
2023-04-11T22:46:03.832Z,5.37
2023-04-11T22:49:08.965Z,5.36
2023-04-11T22:52:11.509Z,5.37
2023-04-11T22:55:13.411Z,5.36
2023-04-11T22:58:14.974Z,5.36
2023-04-11T23:01:16.559Z,5.36
2023-04-11T23:04:19.186Z,5.35
2023-04-11T23:07:20.854Z,5.33
2023-04-11T23:10:22.618Z,5.33
2023-04-11T23:13:24.268Z,5.32
2023-04-11T23:16:25.819Z,5.28
2023-04-11T23:19:27.569Z,5.25
2023-04-11T23:22:29.336Z,5.23
2023-04-11T23:25:31.175Z,5.22
2023-04-11T23:28:32.843Z,5.20
2023-04-11T23:31:34.370Z,5.19
2023-04-11T23:34:36.002Z,5.18
2023-04-11T23:37:37.498Z,5.16
2023-04-11T23:40:39.279Z,5.15
2023-04-11T23:43:40.973Z,5.14
2023-04-11T23:46:42.665Z,5.14
2023-04-11T23:49:44.378Z,5.12
2023-04-11T23:52:45.908Z,5.10
2023-04-11T23:55:47.516Z,5.10
2023-04-11T23:58:49.247Z,5.10
